メインページ
METAR-TAF:

METAR-TAF

空港 :

マスコーカ, オンタリオ州, カナダ

緯度: 44-58N, 経度: 079-18W, 海抜: 280m

現時点の気象観測

当レポートは17分前の05:27(UTC)に作成
変向風 2kt
気温 4°C
湿度 100%
気圧 1017 hPa
視程: 9.7km
高度400ftの千切れ雲あり
高度2000ftの曇り

METAR: CYQA 040527Z AUTO VRB02KT 6SM BR BKN004 OVC020 04/04 A3003 RMK SLP181

時間: 01:44 (05:44 UTC)

予報

当レポートは7時間12分前の22:32(UTC)に作成
予報は03日の 22時(UTC)から 04日の 02時(UTC)まで有効
変向風 3kt
視程: 6.4km
高度400ftの千切れ雲あり
高度1500ftの曇り
小雨, 靄
03日の 22時(UTC)から 04日の 02時(UTC)まで一時的に
視程: 10km
高度400ftの雲は散在している
高度1500ftの曇り

TAF: CYQA 032232Z 0322/0402 VRB03KT 4SM -RA BR BKN004 OVC015 TEMPO 0322/0402 P6SM NSW SCT004 OVC015 RMK FCST BASED ON AUTO OBS. NXT FCST WILL BE ISSUED AT 041145Z

4,000以上の空港の気象観測と天気予報(METAR報とTAF報)

利用可能な観測所は地図上に黄色い丸と赤い丸で示す。

丸の上にカーソルを重ねると観測所名を参照できる。

次にクリックすると気象観測と天気予報を参照できる。

マップの切り替え:黒色「×」印の緑ボタンをクリックして拡大、「-」印の緑ボタンをクリックして縮小、緑色の三角印をクリックして隣りの地図に切り替え


METAR-TAF: